createdAt,value
2022-11-29T00:00:30.098Z,66.22
2022-11-29T00:02:56.772Z,66.72
2022-11-29T00:05:23.405Z,66.03
2022-11-29T00:07:50.073Z,65.68
2022-11-29T00:10:16.739Z,68.25
2022-11-29T00:12:43.369Z,67.17
2022-11-29T00:15:10.066Z,66.78
2022-11-29T00:17:36.733Z,66.19
2022-11-29T00:20:03.897Z,65.97
2022-11-29T00:22:30.486Z,66.70
2022-11-29T00:24:57.091Z,65.81
2022-11-29T00:27:23.678Z,66.79
2022-11-29T00:29:50.298Z,69.53
2022-11-29T00:32:16.929Z,68.29
2022-11-29T00:34:43.827Z,69.96
2022-11-29T00:37:10.792Z,68.74
2022-11-29T00:39:37.392Z,69.35
2022-11-29T00:42:04.161Z,68.41
2022-11-29T00:44:30.807Z,68.66
2022-11-29T00:46:57.454Z,70.08
2022-11-29T00:49:24.207Z,70.06
2022-11-29T00:51:50.928Z,70.24
2022-11-29T00:54:18.290Z,71.09
2022-11-29T00:56:44.945Z,69.12
2022-11-29T00:59:11.657Z,69.29
2022-11-29T01:01:38.457Z,68.47
2022-11-29T01:04:05.370Z,70.31
2022-11-29T01:06:32.152Z,69.23
2022-11-29T01:08:58.815Z,69.91
2022-11-29T01:11:27.309Z,70.40
2022-11-29T01:13:57.322Z,71.95
2022-11-29T01:16:24.520Z,71.20
2022-11-29T01:18:53.898Z,70.15
2022-11-29T01:21:23.016Z,72.74
2022-11-29T01:23:51.909Z,70.91
2022-11-29T01:26:24.998Z,67.92
2022-11-29T01:28:54.050Z,67.29
2022-11-29T01:31:26.908Z,65.95
2022-11-29T01:33:59.796Z,65.78
2022-11-29T01:36:27.298Z,65.15
2022-11-29T01:38:54.334Z,65.03
2022-11-29T01:41:27.084Z,65.22
2022-11-29T01:44:13.867Z,65.60
2022-11-29T01:46:46.342Z,65.21
2022-11-29T01:49:15.814Z,67.01
2022-11-29T01:51:49.282Z,67.50
2022-11-29T01:54:15.931Z,67.09
2022-11-29T01:56:47.303Z,66.95
2022-11-29T01:59:19.117Z,66.15
2022-11-29T02:01:45.866Z,67.57
2022-11-29T02:04:13.313Z,68.21
2022-11-29T02:06:42.325Z,67.28
2022-11-29T02:09:19.863Z,68.17
2022-11-29T02:12:11.297Z,68.72
2022-11-29T02:15:06.726Z,67.90
2022-11-29T02:17:49.522Z,69.02
2022-11-29T02:20:30.219Z,68.77
2022-11-29T02:23:21.564Z,68.39
2022-11-29T02:26:37.771Z,68.13
2022-11-29T02:29:26.103Z,68.55
2022-11-29T02:32:07.775Z,68.05
2022-11-29T02:35:16.047Z,66.94
2022-11-29T02:38:04.491Z,65.97
2022-11-29T02:41:05.034Z,66.84
2022-11-29T02:43:53.474Z,66.80
2022-11-29T02:46:49.720Z,66.72
2022-11-29T02:49:25.263Z,66.07
2022-11-29T02:52:29.908Z,65.97
2022-11-29T02:55:20.987Z,67.93
2022-11-29T02:58:02.344Z,67.95
2022-11-29T03:00:29.426Z,70.37
2022-11-29T03:03:23.557Z,70.30
2022-11-29T03:06:06.708Z,68.24
2022-11-29T03:08:57.206Z,70.05
2022-11-29T03:11:52.584Z,69.39
2022-11-29T03:15:03.931Z,70.36
2022-11-29T03:17:36.281Z,71.50
2022-11-29T03:20:26.344Z,73.09
2022-11-29T03:23:11.061Z,72.66
2022-11-29T03:25:43.950Z,73.13
2022-11-29T03:28:20.589Z,72.59
2022-11-29T03:31:15.663Z,72.88
2022-11-29T03:34:17.647Z,70.74
2022-11-29T03:37:01.415Z,70.36
2022-11-29T03:39:41.450Z,70.23
2022-11-29T03:42:17.617Z,68.17
2022-11-29T03:45:19.552Z,67.50
2022-11-29T03:47:52.649Z,68.50
2022-11-29T03:50:28.045Z,69.12
2022-11-29T03:53:03.288Z,69.21
2022-11-29T03:55:53.130Z,71.73
2022-11-29T03:59:10.822Z,71.99
2022-11-29T04:02:04.595Z,72.37
2022-11-29T04:05:11.920Z,71.95
2022-11-29T04:08:06.450Z,72.28
2022-11-29T04:11:20.165Z,70.60
2022-11-29T04:14:30.598Z,68.28
2022-11-29T04:17:49.097Z,67.26
2022-11-29T04:20:53.488Z,67.87
2022-11-29T04:24:04.647Z,66.56
2022-11-29T04:26:35.101Z,65.80
2022-11-29T04:29:30.705Z,65.24
2022-11-29T04:31:57.285Z,65.20
2022-11-29T04:34:39.024Z,66.16
2022-11-29T04:37:43.937Z,64.72
2022-11-29T04:40:23.904Z,64.84
2022-11-29T04:43:26.095Z,65.67
2022-11-29T04:46:22.842Z,64.96
2022-11-29T04:48:55.070Z,64.10
2022-11-29T04:51:43.210Z,63.77
2022-11-29T04:54:31.573Z,64.78
2022-11-29T04:57:08.410Z,63.56
2022-11-29T04:59:49.072Z,63.26
2022-11-29T05:02:46.340Z,63.79
2022-11-29T05:05:33.742Z,63.25
2022-11-29T05:08:38.206Z,62.39
2022-11-29T05:11:23.386Z,62.22
2022-11-29T05:13:58.812Z,61.70
2022-11-29T05:16:37.670Z,62.73
2022-11-29T05:19:35.017Z,62.61
2022-11-29T05:22:24.944Z,64.89
2022-11-29T05:25:21.496Z,64.14
2022-11-29T05:27:57.920Z,63.92
2022-11-29T05:30:42.234Z,62.94
2022-11-29T05:33:20.815Z,63.06
2022-11-29T05:36:02.749Z,62.91
2022-11-29T05:39:05.621Z,63.04
2022-11-29T05:41:48.308Z,63.11
2022-11-29T05:44:44.691Z,62.59
2022-11-29T05:47:31.549Z,65.27
2022-11-29T05:50:05.996Z,65.96
2022-11-29T05:52:41.751Z,65.21
2022-11-29T05:55:14.404Z,64.47
2022-11-29T05:57:52.383Z,66.16
2022-11-29T06:00:20.165Z,67.13
2022-11-29T06:02:52.767Z,67.83
2022-11-29T06:05:42.310Z,68.77
2022-11-29T06:08:42.956Z,68.05
2022-11-29T06:11:23.229Z,68.13
2022-11-29T06:14:08.865Z,67.07
2022-11-29T06:17:17.300Z,66.18
2022-11-29T06:19:57.316Z,65.88
2022-11-29T06:22:57.725Z,65.49
2022-11-29T06:25:33.188Z,65.29
2022-11-29T06:28:13.708Z,65.62
2022-11-29T06:31:21.477Z,68.23
2022-11-29T06:33:56.276Z,68.80
2022-11-29T06:36:34.424Z,68.17
2022-11-29T06:39:01.474Z,66.83
2022-11-29T06:41:28.488Z,66.84
2022-11-29T06:43:55.481Z,67.39
2022-11-29T06:46:45.659Z,68.49
2022-11-29T06:49:28.576Z,67.51
2022-11-29T06:52:22.738Z,66.62
2022-11-29T06:55:27.048Z,66.22
2022-11-29T06:58:21.589Z,66.23
2022-11-29T07:01:18.851Z,67.75
2022-11-29T07:04:03.883Z,67.37
2022-11-29T07:06:34.249Z,67.95
2022-11-29T07:09:10.640Z,70.25
2022-11-29T07:11:37.781Z,67.99
2022-11-29T07:14:04.660Z,68.12
2022-11-29T07:16:35.502Z,67.34
2022-11-29T07:19:39.633Z,67.32
2022-11-29T07:22:36.752Z,65.24
2022-11-29T07:25:30.900Z,65.36
2022-11-29T07:28:03.542Z,63.86
2022-11-29T07:31:01.069Z,64.06
2022-11-29T07:33:49.421Z,64.06
2022-11-29T07:36:39.009Z,63.45
2022-11-29T07:39:24.921Z,63.47
2022-11-29T07:42:01.271Z,63.86
2022-11-29T07:44:46.082Z,65.22
2022-11-29T07:47:13.508Z,62.88
2022-11-29T07:49:40.100Z,65.37
2022-11-29T07:52:06.794Z,64.66
2022-11-29T07:54:33.458Z,64.02
2022-11-29T07:57:00.052Z,63.18
2022-11-29T07:59:26.656Z,61.63
2022-11-29T08:01:53.400Z,60.98
2022-11-29T08:04:20.029Z,61.18
2022-11-29T08:06:46.700Z,61.77
2022-11-29T08:09:13.386Z,61.64
2022-11-29T08:11:39.973Z,62.07
2022-11-29T08:14:06.613Z,61.58
2022-11-29T08:16:33.281Z,62.27
2022-11-29T08:19:00.456Z,62.94
2022-11-29T08:21:27.137Z,62.55
2022-11-29T08:23:53.756Z,61.49
2022-11-29T08:26:22.195Z,60.92
2022-11-29T08:28:52.211Z,61.34
2022-11-29T08:31:20.101Z,61.73
2022-11-29T08:33:47.236Z,61.29
2022-11-29T08:36:17.410Z,62.24
2022-11-29T08:38:44.193Z,60.03
2022-11-29T08:41:13.833Z,59.81
2022-11-29T08:43:41.322Z,59.00
2022-11-29T08:46:11.306Z,60.02
2022-11-29T08:48:40.425Z,59.24
2022-11-29T08:51:07.323Z,60.99
2022-11-29T08:53:33.917Z,60.89
2022-11-29T08:56:01.281Z,62.09
2022-11-29T08:58:29.080Z,61.33
2022-11-29T09:00:56.736Z,63.09
2022-11-29T09:03:24.027Z,62.11
2022-11-29T09:05:51.170Z,62.58
2022-11-29T09:08:17.925Z,62.45
2022-11-29T09:10:44.699Z,62.28
2022-11-29T09:13:11.974Z,61.77
2022-11-29T09:15:40.665Z,61.83
2022-11-29T09:18:07.773Z,61.71
2022-11-29T09:20:34.637Z,61.63
2022-11-29T09:23:01.398Z,62.72
2022-11-29T09:25:28.795Z,64.96
2022-11-29T09:27:59.248Z,64.81
2022-11-29T09:30:25.980Z,64.91
2022-11-29T09:32:52.634Z,63.66
2022-11-29T09:35:19.277Z,61.76
2022-11-29T09:37:45.885Z,62.48
2022-11-29T09:40:21.106Z,61.36
2022-11-29T09:43:06.561Z,62.92
2022-11-29T09:45:42.201Z,60.98
2022-11-29T09:48:11.765Z,63.88
2022-11-29T09:50:48.740Z,66.66
2022-11-29T09:53:26.022Z,66.15
2022-11-29T09:56:11.437Z,63.07
2022-11-29T09:58:45.716Z,61.55
2022-11-29T10:01:23.596Z,61.97
2022-11-29T10:03:55.720Z,61.74
2022-11-29T10:06:43.352Z,64.63
2022-11-29T10:09:24.436Z,63.08
2022-11-29T10:12:16.985Z,67.45
2022-11-29T10:15:02.855Z,67.25
2022-11-29T10:17:36.975Z,67.60
2022-11-29T10:20:13.888Z,67.21
2022-11-29T10:22:49.787Z,66.68
2022-11-29T10:25:44.093Z,65.73
2022-11-29T10:28:16.975Z,63.35
2022-11-29T10:30:44.192Z,62.54
2022-11-29T10:33:40.586Z,62.03
2022-11-29T10:36:27.850Z,58.19
2022-11-29T10:39:01.526Z,60.49
2022-11-29T10:41:28.184Z,62.99
2022-11-29T10:43:58.641Z,64.58
2022-11-29T10:46:29.628Z,60.76
2022-11-29T10:49:00.530Z,62.70
2022-11-29T10:51:28.706Z,62.80
2022-11-29T10:53:56.818Z,61.92
2022-11-29T10:56:29.858Z,63.29
2022-11-29T10:59:02.633Z,62.81
2022-11-29T11:01:32.151Z,61.10
2022-11-29T11:04:01.441Z,62.77
2022-11-29T11:06:50.095Z,64.58
2022-11-29T11:09:16.652Z,66.18
2022-11-29T11:11:52.016Z,65.30
2022-11-29T11:14:26.561Z,67.19
2022-11-29T11:16:53.729Z,66.29
2022-11-29T11:19:32.809Z,64.13
2022-11-29T11:22:02.241Z,63.64
2022-11-29T11:24:36.077Z,63.49
2022-11-29T11:27:03.376Z,63.38
2022-11-29T11:29:51.905Z,63.22
2022-11-29T11:32:20.452Z,62.79
2022-11-29T11:34:59.681Z,65.25
2022-11-29T11:37:30.553Z,66.29
2022-11-29T11:40:00.632Z,68.57
2022-11-29T11:42:38.933Z,68.19
2022-11-29T11:45:21.698Z,69.25
2022-11-29T11:47:52.718Z,69.70
2022-11-29T11:50:33.509Z,68.86
2022-11-29T11:53:07.225Z,65.28
2022-11-29T11:55:45.148Z,67.42
2022-11-29T11:58:14.521Z,69.75
2022-11-29T12:01:08.656Z,69.60
2022-11-29T12:03:38.153Z,67.87
2022-11-29T12:06:39.470Z,67.79
2022-11-29T12:09:08.557Z,69.11
2022-11-29T12:12:04.186Z,69.51
2022-11-29T12:15:08.358Z,68.70
2022-11-29T12:17:52.913Z,70.81
2022-11-29T12:20:44.258Z,70.29
2022-11-29T12:23:13.978Z,69.00
2022-11-29T12:25:51.914Z,70.42
2022-11-29T12:28:21.042Z,70.52
2022-11-29T12:30:56.755Z,69.71
2022-11-29T12:33:51.083Z,69.08
2022-11-29T12:36:17.643Z,68.73
2022-11-29T12:39:03.606Z,70.38
2022-11-29T12:42:16.892Z,67.44
2022-11-29T12:45:00.539Z,67.82
2022-11-29T12:47:55.495Z,69.12
2022-11-29T12:50:38.257Z,67.88
2022-11-29T12:53:27.266Z,67.95
2022-11-29T12:56:03.279Z,68.20
2022-11-29T12:58:45.783Z,66.83
2022-11-29T13:01:15.874Z,66.84
2022-11-29T13:04:01.605Z,65.06
2022-11-29T13:06:41.983Z,66.01
2022-11-29T13:09:17.747Z,66.77
2022-11-29T13:12:19.576Z,68.33
2022-11-29T13:15:01.525Z,66.89
2022-11-29T13:17:57.903Z,67.35
2022-11-29T13:20:50.596Z,66.56
2022-11-29T13:23:45.508Z,66.61
2022-11-29T13:26:26.733Z,67.65
2022-11-29T13:28:55.069Z,66.76
2022-11-29T13:31:24.323Z,68.51
2022-11-29T13:34:17.044Z,67.94
2022-11-29T13:36:59.213Z,67.42
2022-11-29T13:39:38.849Z,67.27
2022-11-29T13:42:19.677Z,68.08
2022-11-29T13:45:18.162Z,67.74
2022-11-29T13:48:00.103Z,66.73
2022-11-29T13:50:45.412Z,67.29
2022-11-29T13:53:21.589Z,67.30
2022-11-29T13:55:57.385Z,66.51
2022-11-29T13:58:36.117Z,68.34
2022-11-29T14:01:11.394Z,67.41
2022-11-29T14:04:02.278Z,67.52
2022-11-29T14:06:39.736Z,69.60
2022-11-29T14:09:31.266Z,68.56
2022-11-29T14:12:26.122Z,69.06
2022-11-29T14:15:05.878Z,67.82
2022-11-29T14:17:35.785Z,68.87
2022-11-29T14:20:40.629Z,69.49
2022-11-29T14:23:07.173Z,69.08
2022-11-29T14:25:51.596Z,69.65
2022-11-29T14:28:21.569Z,68.75
2022-11-29T14:30:56.112Z,68.88
2022-11-29T14:33:33.850Z,70.03
2022-11-29T14:36:15.792Z,69.32
2022-11-29T14:38:54.604Z,69.37
2022-11-29T14:41:45.835Z,67.71
2022-11-29T14:44:24.542Z,68.88
2022-11-29T14:47:02.924Z,68.39
2022-11-29T14:49:38.341Z,68.02
2022-11-29T14:52:29.448Z,69.12
2022-11-29T14:55:14.247Z,69.37
2022-11-29T14:57:49.664Z,69.67
2022-11-29T15:00:22.292Z,69.64
2022-11-29T15:03:11.051Z,68.80
2022-11-29T15:05:41.049Z,67.59
2022-11-29T15:08:18.237Z,67.70
2022-11-29T15:11:01.293Z,68.17
2022-11-29T15:13:31.090Z,68.65
2022-11-29T15:16:19.402Z,67.49
2022-11-29T15:19:13.225Z,68.17
2022-11-29T15:21:42.737Z,67.18
2022-11-29T15:24:16.876Z,68.39
2022-11-29T15:27:01.075Z,68.01
2022-11-29T15:29:29.552Z,68.49
2022-11-29T15:31:59.697Z,68.92
2022-11-29T15:34:38.068Z,66.76
2022-11-29T15:37:05.303Z,67.54
2022-11-29T15:39:39.590Z,67.85
2022-11-29T15:42:17.282Z,69.32
2022-11-29T15:44:48.838Z,69.54
2022-11-29T15:47:26.779Z,69.92
2022-11-29T15:49:54.301Z,69.19
2022-11-29T15:52:31.522Z,69.71
2022-11-29T15:55:06.395Z,70.02
2022-11-29T15:57:40.850Z,70.17
2022-11-29T16:00:15.856Z,70.97
2022-11-29T16:02:52.131Z,70.73
2022-11-29T16:05:38.814Z,72.22
2022-11-29T16:08:17.265Z,72.35
2022-11-29T16:10:47.195Z,71.78
2022-11-29T16:13:30.877Z,70.77
2022-11-29T16:16:13.266Z,71.33
2022-11-29T16:18:42.639Z,71.29
2022-11-29T16:21:28.574Z,70.26
2022-11-29T16:23:57.463Z,70.78
2022-11-29T16:26:38.950Z,71.17
2022-11-29T16:29:17.244Z,72.53
2022-11-29T16:31:44.062Z,71.94
2022-11-29T16:34:31.321Z,72.24
2022-11-29T16:37:01.017Z,70.00
2022-11-29T16:39:29.189Z,69.46
2022-11-29T16:42:07.262Z,70.06
2022-11-29T16:44:39.886Z,70.33
2022-11-29T16:47:22.138Z,69.93
2022-11-29T16:50:12.308Z,70.82
2022-11-29T16:52:39.140Z,70.91
2022-11-29T16:55:05.885Z,70.72
2022-11-29T16:57:32.752Z,72.00
2022-11-29T16:59:59.456Z,72.33
2022-11-29T17:02:29.361Z,72.08
2022-11-29T17:04:56.034Z,72.41
2022-11-29T17:07:35.270Z,72.05
2022-11-29T17:10:04.172Z,73.07
2022-11-29T17:12:30.737Z,72.77
2022-11-29T17:14:57.325Z,73.30
2022-11-29T17:17:23.945Z,73.12
2022-11-29T17:19:50.535Z,73.73
2022-11-29T17:22:17.221Z,73.35
2022-11-29T17:24:47.999Z,73.05
2022-11-29T17:27:15.272Z,73.72
2022-11-29T17:29:41.864Z,73.57
2022-11-29T17:32:08.483Z,73.19
2022-11-29T17:34:35.114Z,73.00
2022-11-29T17:37:01.741Z,72.07
2022-11-29T17:39:30.785Z,71.99
2022-11-29T17:41:57.478Z,71.22
2022-11-29T17:44:26.590Z,71.64
2022-11-29T17:46:53.275Z,72.35
2022-11-29T17:49:19.884Z,72.58
2022-11-29T17:51:54.138Z,73.31
2022-11-29T17:54:22.102Z,74.49
2022-11-29T17:56:49.166Z,74.69
2022-11-29T17:59:15.778Z,75.20
2022-11-29T18:01:42.430Z,75.81
2022-11-29T18:04:09.041Z,75.50
2022-11-29T18:06:38.511Z,75.10
2022-11-29T18:09:08.571Z,74.99
2022-11-29T18:11:47.022Z,74.98
2022-11-29T18:14:20.978Z,75.37
2022-11-29T18:16:47.783Z,76.21
2022-11-29T18:19:17.807Z,75.28
2022-11-29T18:21:44.743Z,75.86
2022-11-29T18:24:11.934Z,76.11
2022-11-29T18:26:39.847Z,75.47
2022-11-29T18:29:07.189Z,75.82
2022-11-29T18:31:37.448Z,75.28
2022-11-29T18:34:07.295Z,74.46
2022-11-29T18:36:36.894Z,74.46
2022-11-29T18:39:10.168Z,73.76
2022-11-29T18:41:37.992Z,74.19
2022-11-29T18:44:10.317Z,74.41
2022-11-29T18:46:38.934Z,74.80
2022-11-29T18:49:12.136Z,75.99
2022-11-29T18:51:40.122Z,75.39
2022-11-29T18:54:06.735Z,75.99
2022-11-29T18:56:35.417Z,75.64
2022-11-29T18:59:10.253Z,76.22
2022-11-29T19:01:38.704Z,75.99
2022-11-29T19:04:05.307Z,75.54
2022-11-29T19:06:39.387Z,75.31
2022-11-29T19:09:11.661Z,75.08
2022-11-29T19:11:38.674Z,74.68
2022-11-29T19:14:07.872Z,75.47
2022-11-29T19:16:34.933Z,75.16
2022-11-29T19:19:02.249Z,74.71
2022-11-29T19:21:31.589Z,74.83
2022-11-29T19:24:01.102Z,74.76
2022-11-29T19:26:30.054Z,74.40
2022-11-29T19:28:58.996Z,74.09
2022-11-29T19:31:25.695Z,73.98
2022-11-29T19:33:54.068Z,74.25
2022-11-29T19:36:22.356Z,74.83
2022-11-29T19:38:53.388Z,75.23
2022-11-29T19:41:25.513Z,74.69
2022-11-29T19:43:53.083Z,75.00
2022-11-29T19:46:25.975Z,75.19
2022-11-29T19:48:54.818Z,74.60
2022-11-29T19:51:22.836Z,73.92
2022-11-29T19:53:53.883Z,74.81
2022-11-29T19:56:21.013Z,74.53
2022-11-29T19:58:47.713Z,74.80
2022-11-29T20:01:17.491Z,74.32
2022-11-29T20:03:44.425Z,75.33
2022-11-29T20:06:14.693Z,75.28
2022-11-29T20:08:42.547Z,75.14
2022-11-29T20:11:12.401Z,76.04
2022-11-29T20:13:40.926Z,74.35
2022-11-29T20:16:13.691Z,74.91
2022-11-29T20:18:50.384Z,74.69
2022-11-29T20:21:20.865Z,74.93
2022-11-29T20:23:47.829Z,75.16
2022-11-29T20:26:17.821Z,74.10
2022-11-29T20:28:45.580Z,75.09
2022-11-29T20:31:15.482Z,73.49
2022-11-29T20:33:45.091Z,73.31
2022-11-29T20:36:17.624Z,73.66
2022-11-29T20:39:21.822Z,74.91
2022-11-29T20:42:17.628Z,76.42
2022-11-29T20:44:56.163Z,76.01
2022-11-29T20:47:40.135Z,75.11
2022-11-29T20:50:07.982Z,75.80
2022-11-29T20:52:37.455Z,75.91
2022-11-29T20:55:05.494Z,76.20
2022-11-29T20:57:32.107Z,73.92
2022-11-29T20:59:58.882Z,74.29
2022-11-29T21:02:25.493Z,74.71
2022-11-29T21:04:52.193Z,74.75
2022-11-29T21:07:18.879Z,74.37
2022-11-29T21:09:45.799Z,75.10
2022-11-29T21:12:12.936Z,74.42
2022-11-29T21:14:39.759Z,75.22
2022-11-29T21:17:06.842Z,75.52
2022-11-29T21:19:33.649Z,75.99
2022-11-29T21:22:25.452Z,76.42
2022-11-29T21:25:23.032Z,76.43
2022-11-29T21:27:51.699Z,75.84
2022-11-29T21:30:21.735Z,75.06
2022-11-29T21:32:48.887Z,73.76
2022-11-29T21:35:15.949Z,73.34
2022-11-29T21:37:44.174Z,73.92
2022-11-29T21:40:13.933Z,75.32
2022-11-29T21:42:40.715Z,74.50
2022-11-29T21:45:13.442Z,73.58
2022-11-29T21:47:42.764Z,73.53
2022-11-29T21:50:09.765Z,73.03
2022-11-29T21:52:36.399Z,72.87
2022-11-29T21:55:03.168Z,72.68
2022-11-29T21:57:29.787Z,72.62
2022-11-29T21:59:57.389Z,71.47
2022-11-29T22:02:24.073Z,72.21
2022-11-29T22:04:50.820Z,70.31
2022-11-29T22:07:17.484Z,70.64
2022-11-29T22:09:44.178Z,69.87
2022-11-29T22:12:32.461Z,70.37
2022-11-29T22:14:57.387Z,72.25
2022-11-29T22:17:23.980Z,73.21
2022-11-29T22:19:50.565Z,71.61
2022-11-29T22:22:17.200Z,70.70
2022-11-29T22:24:44.132Z,70.89
2022-11-29T22:27:10.925Z,73.09
2022-11-29T22:29:37.546Z,70.20
2022-11-29T22:32:04.256Z,68.52
2022-11-29T22:34:30.880Z,68.62
2022-11-29T22:36:57.517Z,67.08
2022-11-29T22:39:24.236Z,65.58
2022-11-29T22:41:54.673Z,64.46
2022-11-29T22:44:23.740Z,65.85
2022-11-29T22:46:51.021Z,66.28
2022-11-29T22:49:18.226Z,65.98
2022-11-29T22:51:44.938Z,65.75
2022-11-29T22:54:11.891Z,67.99
2022-11-29T22:56:40.765Z,71.50
2022-11-29T22:59:08.686Z,70.68
2022-11-29T23:01:37.954Z,71.67
2022-11-29T23:04:06.802Z,73.35
2022-11-29T23:06:44.982Z,73.12
2022-11-29T23:09:17.973Z,73.52
2022-11-29T23:11:46.063Z,74.48
2022-11-29T23:14:13.341Z,74.90
2022-11-29T23:16:41.639Z,74.73
2022-11-29T23:19:08.475Z,73.94
2022-11-29T23:21:37.789Z,74.38
2022-11-29T23:24:04.797Z,74.01
2022-11-29T23:26:34.890Z,74.02
2022-11-29T23:29:01.576Z,75.10
2022-11-29T23:31:28.317Z,74.87
2022-11-29T23:33:55.087Z,74.32
2022-11-29T23:36:21.719Z,73.68
2022-11-29T23:38:49.552Z,74.13
2022-11-29T23:41:16.371Z,73.81
2022-11-29T23:43:42.999Z,72.46
2022-11-29T23:46:16.952Z,72.45
2022-11-29T23:48:44.213Z,73.66
2022-11-29T23:51:12.064Z,73.87
2022-11-29T23:53:39.370Z,73.71
2022-11-29T23:56:10.287Z,74.12
2022-11-29T23:58:36.881Z,73.11
